This is the latest recevied weather packets stored in our database for station/object KC3VCX. If no packets are shown the sender has not sent any weather packets the latest 10 day(s).
| Time | Temp. | Humidity | Pressure | Rain* | Wind** | Luminosity | Snow |
|---|---|---|---|---|---|---|---|
| 1777835845 | 13.89° C | 41% | 1016.9 hPa | 0 mm | - | 838 W/m² | - |
| 1777835542 | 13.33° C | 43% | 1017.1 hPa | 0 mm | - | 788 W/m² | - |
| 1777835239 | 13.33° C | 41% | 1017.2 hPa | 0 mm | - | 824 W/m² | - |
| 1777834935 | 13.33° C | 42% | 1017.1 hPa | 0 mm | - | 717 W/m² | - |
| 1777834633 | 13.33° C | 41% | 1017.3 hPa | 0 mm | - | 266 W/m² | - |
| 1777834328 | 13.33° C | 41% | 1017.3 hPa | 0 mm | - | 302 W/m² | - |
| 1777834023 | 12.78° C | 43% | 1017.3 hPa | 0 mm | - | 860 W/m² | - |
| 1777833720 | 12.78° C | 43% | 1017.6 hPa | 0 mm | - | 290 W/m² | - |
| 1777833416 | 12.78° C | 42% | 1017.4 hPa | 0 mm | - | 220 W/m² | - |
| 1777833113 | 12.78° C | 44% | 1017.3 hPa | 0 mm | - | 953 W/m² | - |
| 1777832811 | 12.78° C | 42% | 1017.6 hPa | 0 mm | - | 167 W/m² | - |
| 1777832510 | 12.78° C | 44% | 1017.9 hPa | 0 mm | - | 891 W/m² | - |
| 1777832206 | 12.78° C | 41% | 1017.8 hPa | 0 mm | - | 385 W/m² | - |
| 1777831903 | 12.22° C | 43% | 1017.9 hPa | 0 mm | - | 908 W/m² | - |
| 1777831600 | 12.22° C | 42% | 1018 hPa | 0 mm | - | 983 W/m² | - |
| 1777831298 | 12.78° C | 43% | 1018 hPa | 0 mm | - | 884 W/m² | - |
| 1777830995 | 13.33° C | 41% | 1018 hPa | 0 mm | - | 873 W/m² | - |
| 1777830692 | 12.78° C | 44% | 1018 hPa | 0 mm | - | 861 W/m² | - |
| 1777830388 | 12.22° C | 46% | 1017.9 hPa | 0 mm | - | 906 W/m² | - |
| 1777830086 | 12.78° C | 41% | 1017.9 hPa | 0 mm | - | 880 W/m² | - |
| 1777829780 | 11.11° C | 44% | 1018 hPa | 0 mm | - | 872 W/m² | - |
| 1777829477 | 11.67° C | 42% | 1018.3 hPa | 0 mm | - | 174 W/m² | - |
| 1777829174 | 12.78° C | 40% | 1018.2 hPa | 0 mm | - | 271 W/m² | - |
| 1777828872 | 11.67° C | 45% | 1018.2 hPa | 0 mm | - | 972 W/m² | - |
| 1777828568 | 12.22° C | 41% | 1018.2 hPa | 0 mm | - | 937 W/m² | - |
* Rain latest hour (hover to see other rain measurements)
** Current wind speed in m/s (hover to see current wind gust speed)